New Lebanon, Indiana
Current Conditions -  °F | °C
As of 9:15 AM on Thursday 27 Nov 2014 (Local Time) from KRSV Reporting Station
Clear Clear  
Wind Chill: 17°   Ceiling: Unl
Heat Index: 26°   Visibility: 7mi
Dew Point: 23°   Wind: 8mph
Humidity: 89%   Direction: 310°NW
Pressure: 30.39"   Gusts: NA
Location:  39.04°N, 87.47°W
Report Text: KRSV 271415Z AUTO 31007KT 7SM CLR M03/M05 A3039 RMK AO2 T10351051
Loading
Personal Weather Stations






























Interactive Weather Map New forecast layout! Learn more

10-Day Weather Forecast

Advertisements
Track Severe Weather on mobile